sensor_id;sensor_type;location;lat;lon;timestamp;P1;durP1;ratioP1;P2;durP2;ratioP2
6029;SDS011;3043;42.682;23.376;2022-10-16T00:01:05;13.20;;;8.40;;
6029;SDS011;3043;42.682;23.376;2022-10-16T00:03:36;14.87;;;9.80;;
6029;SDS011;3043;42.682;23.376;2022-10-16T00:06:03;15.03;;;10.27;;
6029;SDS011;3043;42.682;23.376;2022-10-16T00:08:29;14.30;;;9.87;;
6029;SDS011;3043;42.682;23.376;2022-10-16T00:11:01;15.10;;;9.43;;
6029;SDS011;3043;42.682;23.376;2022-10-16T00:13:29;17.53;;;10.77;;
6029;SDS011;3043;42.682;23.376;2022-10-16T00:15:55;16.40;;;10.57;;
6029;SDS011;3043;42.682;23.376;2022-10-16T00:18:22;18.80;;;10.67;;
6029;SDS011;3043;42.682;23.376;2022-10-16T00:20:49;14.67;;;10.73;;
6029;SDS011;3043;42.682;23.376;2022-10-16T00:23:15;17.00;;;10.80;;
6029;SDS011;3043;42.682;23.376;2022-10-16T00:25:40;16.97;;;10.70;;
6029;SDS011;3043;42.682;23.376;2022-10-16T00:28:05;15.97;;;10.03;;
6029;SDS011;3043;42.682;23.376;2022-10-16T00:30:31;14.03;;;9.63;;
6029;SDS011;3043;42.682;23.376;2022-10-16T00:32:57;16.53;;;9.97;;
6029;SDS011;3043;42.682;23.376;2022-10-16T00:35:22;15.20;;;10.30;;
6029;SDS011;3043;42.682;23.376;2022-10-16T00:37:48;15.13;;;10.67;;
6029;SDS011;3043;42.682;23.376;2022-10-16T00:40:13;13.90;;;10.10;;
6029;SDS011;3043;42.682;23.376;2022-10-16T00:42:39;13.83;;;10.17;;
6029;SDS011;3043;42.682;23.376;2022-10-16T00:45:04;15.57;;;10.70;;
6029;SDS011;3043;42.682;23.376;2022-10-16T00:47:32;16.67;;;10.53;;
6029;SDS011;3043;42.682;23.376;2022-10-16T00:53:03;14.03;;;9.87;;
6029;SDS011;3043;42.682;23.376;2022-10-16T00:55:29;13.83;;;9.83;;
6029;SDS011;3043;42.682;23.376;2022-10-16T00:57:55;13.20;;;9.90;;
6029;SDS011;3043;42.682;23.376;2022-10-16T01:00:24;17.17;;;9.70;;
6029;SDS011;3043;42.682;23.376;2022-10-16T01:02:54;18.37;;;10.63;;
6029;SDS011;3043;42.682;23.376;2022-10-16T01:05:30;16.20;;;10.57;;
6029;SDS011;3043;42.682;23.376;2022-10-16T01:10:46;19.47;;;12.13;;
6029;SDS011;3043;42.682;23.376;2022-10-16T01:13:26;15.60;;;10.67;;
6029;SDS011;3043;42.682;23.376;2022-10-16T01:16:08;18.50;;;11.17;;
6029;SDS011;3043;42.682;23.376;2022-10-16T01:21:35;16.87;;;11.47;;
6029;SDS011;3043;42.682;23.376;2022-10-16T01:30:02;19.67;;;11.70;;
6029;SDS011;3043;42.682;23.376;2022-10-16T01:32:38;15.90;;;11.03;;
6029;SDS011;3043;42.682;23.376;2022-10-16T01:38:19;20.17;;;12.43;;
6029;SDS011;3043;42.682;23.376;2022-10-16T01:40:30;19.73;;;10.97;;
6029;SDS011;3043;42.682;23.376;2022-10-16T01:43:07;15.70;;;11.63;;
6029;SDS011;3043;42.682;23.376;2022-10-16T01:45:37;18.30;;;10.87;;
6029;SDS011;3043;42.682;23.376;2022-10-16T01:48:03;16.07;;;11.30;;
6029;SDS011;3043;42.682;23.376;2022-10-16T01:50:33;17.30;;;12.17;;
6029;SDS011;3043;42.682;23.376;2022-10-16T01:53:02;19.03;;;12.57;;
6029;SDS011;3043;42.682;23.376;2022-10-16T01:55:31;20.27;;;14.07;;
6029;SDS011;3043;42.682;23.376;2022-10-16T01:58:00;17.27;;;11.30;;
6029;SDS011;3043;42.682;23.376;2022-10-16T02:00:29;13.70;;;8.97;;
6029;SDS011;3043;42.682;23.376;2022-10-16T02:02:55;17.60;;;10.33;;
6029;SDS011;3043;42.682;23.376;2022-10-16T02:07:55;21.17;;;12.77;;
6029;SDS011;3043;42.682;23.376;2022-10-16T02:10:20;21.20;;;13.87;;
6029;SDS011;3043;42.682;23.376;2022-10-16T02:12:57;17.70;;;11.93;;
6029;SDS011;3043;42.682;23.376;2022-10-16T02:15:28;16.57;;;10.63;;
6029;SDS011;3043;42.682;23.376;2022-10-16T02:17:54;19.37;;;12.37;;
6029;SDS011;3043;42.682;23.376;2022-10-16T02:20:20;17.80;;;11.63;;
6029;SDS011;3043;42.682;23.376;2022-10-16T02:22:52;20.43;;;11.83;;
6029;SDS011;3043;42.682;23.376;2022-10-16T02:25:21;17.90;;;11.47;;
6029;SDS011;3043;42.682;23.376;2022-10-16T02:30:39;21.80;;;14.03;;
6029;SDS011;3043;42.682;23.376;2022-10-16T02:33:18;25.77;;;17.40;;
6029;SDS011;3043;42.682;23.376;2022-10-16T02:35:47;31.17;;;19.27;;
6029;SDS011;3043;42.682;23.376;2022-10-16T02:38:16;28.87;;;19.13;;
6029;SDS011;3043;42.682;23.376;2022-10-16T02:40:43;33.43;;;18.53;;
6029;SDS011;3043;42.682;23.376;2022-10-16T02:43:09;28.97;;;17.07;;
6029;SDS011;3043;42.682;23.376;2022-10-16T02:45:35;24.00;;;13.80;;
6029;SDS011;3043;42.682;23.376;2022-10-16T02:48:01;21.93;;;14.07;;
6029;SDS011;3043;42.682;23.376;2022-10-16T02:50:26;24.30;;;15.07;;
6029;SDS011;3043;42.682;23.376;2022-10-16T02:52:52;23.17;;;15.93;;
6029;SDS011;3043;42.682;23.376;2022-10-16T02:55:17;29.93;;;19.03;;
6029;SDS011;3043;42.682;23.376;2022-10-16T02:57:43;27.33;;;17.43;;
6029;SDS011;3043;42.682;23.376;2022-10-16T03:00:13;29.30;;;18.87;;
6029;SDS011;3043;42.682;23.376;2022-10-16T03:02:40;24.00;;;17.20;;
6029;SDS011;3043;42.682;23.376;2022-10-16T03:05:06;23.43;;;16.93;;
6029;SDS011;3043;42.682;23.376;2022-10-16T03:07:32;25.07;;;16.40;;
6029;SDS011;3043;42.682;23.376;2022-10-16T03:09:58;23.83;;;15.30;;
6029;SDS011;3043;42.682;23.376;2022-10-16T03:12:25;21.33;;;14.10;;
6029;SDS011;3043;42.682;23.376;2022-10-16T03:14:52;23.63;;;15.27;;
6029;SDS011;3043;42.682;23.376;2022-10-16T03:17:17;22.83;;;14.30;;
6029;SDS011;3043;42.682;23.376;2022-10-16T03:19:43;28.70;;;15.77;;
6029;SDS011;3043;42.682;23.376;2022-10-16T03:22:08;20.67;;;13.73;;
6029;SDS011;3043;42.682;23.376;2022-10-16T03:24:34;18.17;;;11.03;;
6029;SDS011;3043;42.682;23.376;2022-10-16T03:26:59;20.43;;;13.27;;
6029;SDS011;3043;42.682;23.376;2022-10-16T03:29:25;18.97;;;12.70;;
6029;SDS011;3043;42.682;23.376;2022-10-16T03:31:51;16.37;;;11.13;;
6029;SDS011;3043;42.682;23.376;2022-10-16T03:34:16;18.20;;;12.27;;
6029;SDS011;3043;42.682;23.376;2022-10-16T03:36:42;15.87;;;10.27;;
6029;SDS011;3043;42.682;23.376;2022-10-16T03:39:07;14.50;;;9.13;;
6029;SDS011;3043;42.682;23.376;2022-10-16T03:41:33;16.37;;;10.27;;
6029;SDS011;3043;42.682;23.376;2022-10-16T03:43:58;14.00;;;9.70;;
6029;SDS011;3043;42.682;23.376;2022-10-16T03:46:24;16.73;;;10.67;;
6029;SDS011;3043;42.682;23.376;2022-10-16T03:48:49;16.50;;;11.73;;
6029;SDS011;3043;42.682;23.376;2022-10-16T03:51:14;14.37;;;10.87;;
6029;SDS011;3043;42.682;23.376;2022-10-16T03:53:40;15.83;;;11.23;;
6029;SDS011;3043;42.682;23.376;2022-10-16T03:56:06;16.47;;;10.77;;
6029;SDS011;3043;42.682;23.376;2022-10-16T03:58:31;20.40;;;12.63;;
6029;SDS011;3043;42.682;23.376;2022-10-16T04:00:57;17.63;;;10.97;;
6029;SDS011;3043;42.682;23.376;2022-10-16T04:03:22;16.10;;;9.57;;
6029;SDS011;3043;42.682;23.376;2022-10-16T04:05:48;19.33;;;11.73;;
6029;SDS011;3043;42.682;23.376;2022-10-16T04:08:14;21.73;;;12.77;;
6029;SDS011;3043;42.682;23.376;2022-10-16T04:10:41;18.70;;;11.70;;
6029;SDS011;3043;42.682;23.376;2022-10-16T04:13:08;17.27;;;11.70;;
6029;SDS011;3043;42.682;23.376;2022-10-16T04:15:34;17.67;;;12.07;;
6029;SDS011;3043;42.682;23.376;2022-10-16T04:17:59;19.30;;;12.17;;
6029;SDS011;3043;42.682;23.376;2022-10-16T04:20:25;24.77;;;17.57;;
6029;SDS011;3043;42.682;23.376;2022-10-16T04:22:50;20.17;;;15.07;;
6029;SDS011;3043;42.682;23.376;2022-10-16T04:25:16;22.30;;;14.77;;
6029;SDS011;3043;42.682;23.376;2022-10-16T04:27:41;21.10;;;15.37;;
6029;SDS011;3043;42.682;23.376;2022-10-16T04:30:06;23.17;;;16.60;;
6029;SDS011;3043;42.682;23.376;2022-10-16T04:32:32;23.70;;;16.17;;
6029;SDS011;3043;42.682;23.376;2022-10-16T04:34:58;26.43;;;15.77;;
6029;SDS011;3043;42.682;23.376;2022-10-16T04:37:27;26.40;;;14.93;;
6029;SDS011;3043;42.682;23.376;2022-10-16T04:39:52;23.37;;;14.97;;
6029;SDS011;3043;42.682;23.376;2022-10-16T04:42:19;32.10;;;22.73;;
6029;SDS011;3043;42.682;23.376;2022-10-16T04:44:45;28.93;;;19.50;;
6029;SDS011;3043;42.682;23.376;2022-10-16T04:47:11;36.83;;;24.37;;
6029;SDS011;3043;42.682;23.376;2022-10-16T04:49:37;27.20;;;18.67;;
6029;SDS011;3043;42.682;23.376;2022-10-16T04:52:02;33.57;;;23.03;;
6029;SDS011;3043;42.682;23.376;2022-10-16T04:54:28;34.90;;;24.10;;
6029;SDS011;3043;42.682;23.376;2022-10-16T04:56:53;29.40;;;22.53;;
6029;SDS011;3043;42.682;23.376;2022-10-16T04:59:19;32.00;;;20.33;;
6029;SDS011;3043;42.682;23.376;2022-10-16T05:01:46;38.67;;;24.73;;
6029;SDS011;3043;42.682;23.376;2022-10-16T05:04:11;30.77;;;21.03;;
6029;SDS011;3043;42.682;23.376;2022-10-16T05:06:37;28.97;;;19.80;;
6029;SDS011;3043;42.682;23.376;2022-10-16T05:09:04;28.83;;;17.93;;
6029;SDS011;3043;42.682;23.376;2022-10-16T05:11:32;26.90;;;17.50;;
6029;SDS011;3043;42.682;23.376;2022-10-16T05:13:58;22.50;;;15.40;;
6029;SDS011;3043;42.682;23.376;2022-10-16T05:16:24;23.33;;;15.73;;
6029;SDS011;3043;42.682;23.376;2022-10-16T05:18:50;19.70;;;13.47;;
6029;SDS011;3043;42.682;23.376;2022-10-16T05:21:16;17.27;;;12.13;;
6029;SDS011;3043;42.682;23.376;2022-10-16T05:23:42;20.60;;;12.70;;
6029;SDS011;3043;42.682;23.376;2022-10-16T05:26:07;22.03;;;13.17;;
6029;SDS011;3043;42.682;23.376;2022-10-16T05:28:33;18.23;;;12.87;;
6029;SDS011;3043;42.682;23.376;2022-10-16T05:30:58;17.47;;;12.53;;
6029;SDS011;3043;42.682;23.376;2022-10-16T05:33:25;18.53;;;13.00;;
6029;SDS011;3043;42.682;23.376;2022-10-16T05:35:51;19.87;;;12.60;;
6029;SDS011;3043;42.682;23.376;2022-10-16T05:38:17;18.53;;;14.90;;
6029;SDS011;3043;42.682;23.376;2022-10-16T05:40:42;20.60;;;15.40;;
6029;SDS011;3043;42.682;23.376;2022-10-16T05:43:08;21.47;;;15.93;;
6029;SDS011;3043;42.682;23.376;2022-10-16T05:45:34;21.97;;;15.30;;
6029;SDS011;3043;42.682;23.376;2022-10-16T05:48:00;18.77;;;13.70;;
6029;SDS011;3043;42.682;23.376;2022-10-16T05:50:26;19.93;;;14.10;;
6029;SDS011;3043;42.682;23.376;2022-10-16T05:52:51;21.60;;;16.00;;
6029;SDS011;3043;42.682;23.376;2022-10-16T05:55:17;24.00;;;16.53;;
6029;SDS011;3043;42.682;23.376;2022-10-16T05:57:42;24.00;;;17.13;;
6029;SDS011;3043;42.682;23.376;2022-10-16T06:00:08;21.50;;;15.93;;
6029;SDS011;3043;42.682;23.376;2022-10-16T06:02:34;20.83;;;15.33;;
6029;SDS011;3043;42.682;23.376;2022-10-16T06:04:59;21.00;;;15.37;;
6029;SDS011;3043;42.682;23.376;2022-10-16T06:07:25;20.17;;;16.57;;
6029;SDS011;3043;42.682;23.376;2022-10-16T06:09:51;21.23;;;17.13;;
6029;SDS011;3043;42.682;23.376;2022-10-16T06:12:17;19.87;;;14.30;;
6029;SDS011;3043;42.682;23.376;2022-10-16T06:14:43;23.03;;;15.67;;
6029;SDS011;3043;42.682;23.376;2022-10-16T06:17:10;25.03;;;19.77;;
6029;SDS011;3043;42.682;23.376;2022-10-16T06:19:35;23.73;;;19.30;;
6029;SDS011;3043;42.682;23.376;2022-10-16T06:22:01;21.90;;;16.77;;
6029;SDS011;3043;42.682;23.376;2022-10-16T06:24:27;17.53;;;15.27;;
6029;SDS011;3043;42.682;23.376;2022-10-16T06:26:53;17.90;;;14.33;;
6029;SDS011;3043;42.682;23.376;2022-10-16T06:29:18;15.47;;;13.17;;
6029;SDS011;3043;42.682;23.376;2022-10-16T06:31:43;19.40;;;14.00;;
6029;SDS011;3043;42.682;23.376;2022-10-16T06:34:09;18.70;;;14.60;;
6029;SDS011;3043;42.682;23.376;2022-10-16T06:36:36;17.43;;;13.27;;
6029;SDS011;3043;42.682;23.376;2022-10-16T06:39:03;17.13;;;13.50;;
6029;SDS011;3043;42.682;23.376;2022-10-16T06:41:30;21.37;;;15.53;;
6029;SDS011;3043;42.682;23.376;2022-10-16T06:43:55;23.10;;;17.27;;
6029;SDS011;3043;42.682;23.376;2022-10-16T06:46:22;24.80;;;19.03;;
6029;SDS011;3043;42.682;23.376;2022-10-16T06:48:49;26.43;;;20.30;;
6029;SDS011;3043;42.682;23.376;2022-10-16T06:51:15;22.30;;;17.33;;
6029;SDS011;3043;42.682;23.376;2022-10-16T06:53:43;18.03;;;13.37;;
6029;SDS011;3043;42.682;23.376;2022-10-16T06:56:18;13.03;;;10.00;;
6029;SDS011;3043;42.682;23.376;2022-10-16T06:58:49;12.63;;;9.33;;
6029;SDS011;3043;42.682;23.376;2022-10-16T07:01:15;11.57;;;9.53;;
6029;SDS011;3043;42.682;23.376;2022-10-16T07:03:42;14.00;;;9.77;;
6029;SDS011;3043;42.682;23.376;2022-10-16T07:06:09;12.17;;;8.87;;
6029;SDS011;3043;42.682;23.376;2022-10-16T07:08:37;11.03;;;8.30;;
6029;SDS011;3043;42.682;23.376;2022-10-16T07:11:05;10.30;;;7.17;;
6029;SDS011;3043;42.682;23.376;2022-10-16T07:13:39;10.87;;;6.80;;
6029;SDS011;3043;42.682;23.376;2022-10-16T07:16:10;9.20;;;7.07;;
6029;SDS011;3043;42.682;23.376;2022-10-16T07:18:37;9.53;;;7.10;;
6029;SDS011;3043;42.682;23.376;2022-10-16T07:21:10;10.87;;;8.00;;
6029;SDS011;3043;42.682;23.376;2022-10-16T07:23:37;10.37;;;6.80;;
6029;SDS011;3043;42.682;23.376;2022-10-16T07:26:03;10.27;;;7.50;;
6029;SDS011;3043;42.682;23.376;2022-10-16T07:28:30;11.17;;;7.87;;
6029;SDS011;3043;42.682;23.376;2022-10-16T07:30:59;12.10;;;7.47;;
6029;SDS011;3043;42.682;23.376;2022-10-16T07:33:26;13.43;;;8.07;;
6029;SDS011;3043;42.682;23.376;2022-10-16T07:35:52;10.87;;;8.10;;
6029;SDS011;3043;42.682;23.376;2022-10-16T07:38:18;12.17;;;8.13;;
6029;SDS011;3043;42.682;23.376;2022-10-16T07:40:45;11.43;;;8.30;;
6029;SDS011;3043;42.682;23.376;2022-10-16T07:43:10;12.90;;;8.50;;
6029;SDS011;3043;42.682;23.376;2022-10-16T07:45:36;12.03;;;7.87;;
6029;SDS011;3043;42.682;23.376;2022-10-16T07:48:02;9.17;;;7.17;;
6029;SDS011;3043;42.682;23.376;2022-10-16T07:50:27;10.07;;;7.17;;
6029;SDS011;3043;42.682;23.376;2022-10-16T07:52:53;10.13;;;6.73;;
6029;SDS011;3043;42.682;23.376;2022-10-16T07:55:18;10.13;;;7.40;;
6029;SDS011;3043;42.682;23.376;2022-10-16T07:57:43;11.20;;;7.03;;
6029;SDS011;3043;42.682;23.376;2022-10-16T08:00:09;10.57;;;7.67;;
6029;SDS011;3043;42.682;23.376;2022-10-16T08:02:41;11.97;;;7.20;;
6029;SDS011;3043;42.682;23.376;2022-10-16T08:05:07;13.67;;;10.67;;
6029;SDS011;3043;42.682;23.376;2022-10-16T08:07:33;16.60;;;14.87;;
6029;SDS011;3043;42.682;23.376;2022-10-16T08:09:58;17.30;;;15.33;;
6029;SDS011;3043;42.682;23.376;2022-10-16T08:12:24;20.63;;;15.50;;
6029;SDS011;3043;42.682;23.376;2022-10-16T08:14:50;15.00;;;11.87;;
6029;SDS011;3043;42.682;23.376;2022-10-16T08:17:16;12.50;;;8.97;;
6029;SDS011;3043;42.682;23.376;2022-10-16T08:19:47;10.53;;;6.67;;
6029;SDS011;3043;42.682;23.376;2022-10-16T08:22:13;13.07;;;7.20;;
6029;SDS011;3043;42.682;23.376;2022-10-16T08:24:39;12.00;;;6.80;;
6029;SDS011;3043;42.682;23.376;2022-10-16T08:27:05;10.13;;;6.63;;
6029;SDS011;3043;42.682;23.376;2022-10-16T08:29:30;11.23;;;7.10;;
6029;SDS011;3043;42.682;23.376;2022-10-16T08:31:56;9.90;;;6.43;;
6029;SDS011;3043;42.682;23.376;2022-10-16T08:34:21;9.47;;;6.17;;
6029;SDS011;3043;42.682;23.376;2022-10-16T08:36:47;9.70;;;6.30;;
6029;SDS011;3043;42.682;23.376;2022-10-16T08:39:12;9.90;;;6.70;;
6029;SDS011;3043;42.682;23.376;2022-10-16T08:41:50;8.83;;;5.97;;
6029;SDS011;3043;42.682;23.376;2022-10-16T08:49:57;8.00;;;4.87;;
6029;SDS011;3043;42.682;23.376;2022-10-16T08:52:27;8.87;;;5.03;;
6029;SDS011;3043;42.682;23.376;2022-10-16T08:54:56;7.07;;;4.43;;
6029;SDS011;3043;42.682;23.376;2022-10-16T08:57:22;7.23;;;4.47;;
6029;SDS011;3043;42.682;23.376;2022-10-16T08:59:53;7.90;;;4.70;;
6029;SDS011;3043;42.682;23.376;2022-10-16T09:02:32;7.67;;;4.10;;
6029;SDS011;3043;42.682;23.376;2022-10-16T09:05:09;9.77;;;4.47;;
6029;SDS011;3043;42.682;23.376;2022-10-16T09:13:12;8.37;;;4.80;;
6029;SDS011;3043;42.682;23.376;2022-10-16T09:16:12;8.03;;;4.90;;
6029;SDS011;3043;42.682;23.376;2022-10-16T09:19:00;9.73;;;4.80;;
6029;SDS011;3043;42.682;23.376;2022-10-16T09:21:29;9.13;;;4.30;;
6029;SDS011;3043;42.682;23.376;2022-10-16T09:24:10;8.97;;;4.43;;
6029;SDS011;3043;42.682;23.376;2022-10-16T09:26:38;7.03;;;4.10;;
6029;SDS011;3043;42.682;23.376;2022-10-16T09:29:03;6.70;;;4.30;;
6029;SDS011;3043;42.682;23.376;2022-10-16T09:31:29;7.97;;;4.50;;
6029;SDS011;3043;42.682;23.376;2022-10-16T09:33:55;8.20;;;5.00;;
6029;SDS011;3043;42.682;23.376;2022-10-16T09:36:25;7.70;;;4.37;;
6029;SDS011;3043;42.682;23.376;2022-10-16T09:39:01;6.53;;;4.10;;
6029;SDS011;3043;42.682;23.376;2022-10-16T09:41:29;6.20;;;4.30;;
6029;SDS011;3043;42.682;23.376;2022-10-16T09:43:55;8.40;;;4.67;;
6029;SDS011;3043;42.682;23.376;2022-10-16T09:46:32;7.23;;;4.23;;
6029;SDS011;3043;42.682;23.376;2022-10-16T09:49:01;8.40;;;3.90;;
6029;SDS011;3043;42.682;23.376;2022-10-16T09:51:29;6.43;;;3.93;;
6029;SDS011;3043;42.682;23.376;2022-10-16T09:54:01;9.83;;;4.57;;
6029;SDS011;3043;42.682;23.376;2022-10-16T09:56:27;6.80;;;4.30;;
6029;SDS011;3043;42.682;23.376;2022-10-16T09:58:54;7.50;;;4.20;;
6029;SDS011;3043;42.682;23.376;2022-10-16T10:01:22;7.30;;;4.70;;
6029;SDS011;3043;42.682;23.376;2022-10-16T10:03:55;9.33;;;4.47;;
6029;SDS011;3043;42.682;23.376;2022-10-16T10:06:27;6.90;;;3.97;;
6029;SDS011;3043;42.682;23.376;2022-10-16T10:08:59;6.00;;;3.73;;
6029;SDS011;3043;42.682;23.376;2022-10-16T10:14:28;8.13;;;4.97;;
6029;SDS011;3043;42.682;23.376;2022-10-16T10:19:44;7.77;;;4.90;;
6029;SDS011;3043;42.682;23.376;2022-10-16T10:22:22;8.93;;;4.17;;
6029;SDS011;3043;42.682;23.376;2022-10-16T10:24:57;8.23;;;3.93;;
6029;SDS011;3043;42.682;23.376;2022-10-16T10:27:53;8.47;;;4.97;;
6029;SDS011;3043;42.682;23.376;2022-10-16T10:38:24;8.30;;;4.30;;
6029;SDS011;3043;42.682;23.376;2022-10-16T10:40:52;8.57;;;4.63;;
6029;SDS011;3043;42.682;23.376;2022-10-16T10:46:42;7.43;;;4.53;;
6029;SDS011;3043;42.682;23.376;2022-10-16T10:54:45;7.33;;;4.30;;
6029;SDS011;3043;42.682;23.376;2022-10-16T11:00:20;6.90;;;4.67;;
6029;SDS011;3043;42.682;23.376;2022-10-16T11:06:04;7.93;;;4.33;;
6029;SDS011;3043;42.682;23.376;2022-10-16T11:08:36;6.70;;;4.13;;
6029;SDS011;3043;42.682;23.376;2022-10-16T11:16:25;7.50;;;4.50;;
6029;SDS011;3043;42.682;23.376;2022-10-16T11:21:37;6.67;;;4.10;;
6029;SDS011;3043;42.682;23.376;2022-10-16T11:24:20;7.13;;;4.10;;
6029;SDS011;3043;42.682;23.376;2022-10-16T11:26:55;7.47;;;4.13;;
6029;SDS011;3043;42.682;23.376;2022-10-16T11:29:25;7.80;;;4.47;;
6029;SDS011;3043;42.682;23.376;2022-10-16T11:31:55;7.80;;;4.27;;
6029;SDS011;3043;42.682;23.376;2022-10-16T11:34:35;5.97;;;4.03;;
6029;SDS011;3043;42.682;23.376;2022-10-16T11:37:18;9.30;;;5.57;;
6029;SDS011;3043;42.682;23.376;2022-10-16T11:40:16;6.90;;;3.80;;
6029;SDS011;3043;42.682;23.376;2022-10-16T11:42:51;7.40;;;4.47;;
6029;SDS011;3043;42.682;23.376;2022-10-16T11:45:39;8.47;;;3.80;;
6029;SDS011;3043;42.682;23.376;2022-10-16T11:48:18;6.90;;;3.70;;
6029;SDS011;3043;42.682;23.376;2022-10-16T11:50:53;8.87;;;4.57;;
6029;SDS011;3043;42.682;23.376;2022-10-16T11:53:46;9.23;;;4.20;;
6029;SDS011;3043;42.682;23.376;2022-10-16T11:56:20;6.30;;;4.10;;
6029;SDS011;3043;42.682;23.376;2022-10-16T12:01:28;6.63;;;3.63;;
6029;SDS011;3043;42.682;23.376;2022-10-16T12:06:53;5.97;;;3.80;;
6029;SDS011;3043;42.682;23.376;2022-10-16T12:09:26;7.37;;;3.30;;
6029;SDS011;3043;42.682;23.376;2022-10-16T12:11:54;7.07;;;3.70;;
6029;SDS011;3043;42.682;23.376;2022-10-16T12:14:21;8.57;;;3.80;;
6029;SDS011;3043;42.682;23.376;2022-10-16T12:16:56;6.67;;;3.70;;
6029;SDS011;3043;42.682;23.376;2022-10-16T12:19:25;7.53;;;3.70;;
6029;SDS011;3043;42.682;23.376;2022-10-16T12:21:54;6.37;;;3.90;;
6029;SDS011;3043;42.682;23.376;2022-10-16T12:26:47;7.63;;;3.83;;
6029;SDS011;3043;42.682;23.376;2022-10-16T12:29:32;6.70;;;3.87;;
6029;SDS011;3043;42.682;23.376;2022-10-16T12:32:03;7.47;;;3.87;;
6029;SDS011;3043;42.682;23.376;2022-10-16T12:34:41;6.40;;;3.70;;
6029;SDS011;3043;42.682;23.376;2022-10-16T12:37:13;6.57;;;4.30;;
6029;SDS011;3043;42.682;23.376;2022-10-16T12:39:46;7.63;;;4.03;;
6029;SDS011;3043;42.682;23.376;2022-10-16T12:42:30;6.07;;;4.10;;
6029;SDS011;3043;42.682;23.376;2022-10-16T12:44:58;8.77;;;4.70;;
6029;SDS011;3043;42.682;23.376;2022-10-16T12:49:56;6.13;;;3.90;;
6029;SDS011;3043;42.682;23.376;2022-10-16T12:55:01;7.00;;;4.00;;
6029;SDS011;3043;42.682;23.376;2022-10-16T13:08:50;6.57;;;3.63;;
6029;SDS011;3043;42.682;23.376;2022-10-16T13:24:52;5.97;;;3.63;;
6029;SDS011;3043;42.682;23.376;2022-10-16T13:27:37;6.67;;;3.77;;
6029;SDS011;3043;42.682;23.376;2022-10-16T13:30:20;6.50;;;3.60;;
6029;SDS011;3043;42.682;23.376;2022-10-16T13:32:52;6.73;;;3.87;;
6029;SDS011;3043;42.682;23.376;2022-10-16T13:35:32;7.13;;;4.00;;
6029;SDS011;3043;42.682;23.376;2022-10-16T13:38:05;6.53;;;3.93;;
6029;SDS011;3043;42.682;23.376;2022-10-16T13:40:55;8.23;;;4.00;;
6029;SDS011;3043;42.682;23.376;2022-10-16T13:44:04;10.20;;;4.93;;
6029;SDS011;3043;42.682;23.376;2022-10-16T13:46:17;6.77;;;4.20;;
6029;SDS011;3043;42.682;23.376;2022-10-16T13:48:45;8.60;;;3.90;;
6029;SDS011;3043;42.682;23.376;2022-10-16T13:51:24;6.63;;;4.10;;
6029;SDS011;3043;42.682;23.376;2022-10-16T13:53:50;7.17;;;3.90;;
6029;SDS011;3043;42.682;23.376;2022-10-16T13:56:16;7.13;;;4.50;;
6029;SDS011;3043;42.682;23.376;2022-10-16T13:58:44;6.67;;;3.67;;
6029;SDS011;3043;42.682;23.376;2022-10-16T14:01:20;6.30;;;3.87;;
6029;SDS011;3043;42.682;23.376;2022-10-16T14:03:49;5.67;;;3.60;;
6029;SDS011;3043;42.682;23.376;2022-10-16T14:06:17;7.37;;;4.10;;
6029;SDS011;3043;42.682;23.376;2022-10-16T14:09:05;9.73;;;4.17;;
6029;SDS011;3043;42.682;23.376;2022-10-16T14:11:33;9.47;;;3.83;;
6029;SDS011;3043;42.682;23.376;2022-10-16T14:14:02;7.37;;;3.93;;
6029;SDS011;3043;42.682;23.376;2022-10-16T14:16:29;9.03;;;3.47;;
6029;SDS011;3043;42.682;23.376;2022-10-16T14:19:02;7.60;;;3.70;;
6029;SDS011;3043;42.682;23.376;2022-10-16T14:21:32;7.93;;;3.70;;
6029;SDS011;3043;42.682;23.376;2022-10-16T14:23:59;8.53;;;3.73;;
6029;SDS011;3043;42.682;23.376;2022-10-16T14:26:40;11.10;;;4.07;;
6029;SDS011;3043;42.682;23.376;2022-10-16T14:29:11;8.70;;;3.80;;
6029;SDS011;3043;42.682;23.376;2022-10-16T14:31:39;8.57;;;3.67;;
6029;SDS011;3043;42.682;23.376;2022-10-16T14:34:22;7.60;;;3.30;;
6029;SDS011;3043;42.682;23.376;2022-10-16T14:36:49;6.53;;;3.37;;
6029;SDS011;3043;42.682;23.376;2022-10-16T14:39:19;10.27;;;3.50;;
6029;SDS011;3043;42.682;23.376;2022-10-16T14:41:47;6.43;;;3.63;;
6029;SDS011;3043;42.682;23.376;2022-10-16T14:44:14;9.17;;;3.70;;
6029;SDS011;3043;42.682;23.376;2022-10-16T14:46:42;6.20;;;3.43;;
6029;SDS011;3043;42.682;23.376;2022-10-16T14:51:35;9.13;;;3.50;;
6029;SDS011;3043;42.682;23.376;2022-10-16T14:54:00;7.37;;;3.47;;
6029;SDS011;3043;42.682;23.376;2022-10-16T14:56:30;7.87;;;4.20;;
6029;SDS011;3043;42.682;23.376;2022-10-16T14:59:00;7.97;;;3.90;;
6029;SDS011;3043;42.682;23.376;2022-10-16T15:01:39;7.33;;;4.10;;
6029;SDS011;3043;42.682;23.376;2022-10-16T15:04:07;8.50;;;4.40;;
6029;SDS011;3043;42.682;23.376;2022-10-16T15:06:34;9.33;;;4.53;;
6029;SDS011;3043;42.682;23.376;2022-10-16T15:08:59;9.17;;;5.10;;
6029;SDS011;3043;42.682;23.376;2022-10-16T15:11:25;11.10;;;5.43;;
6029;SDS011;3043;42.682;23.376;2022-10-16T15:13:50;9.57;;;6.20;;
6029;SDS011;3043;42.682;23.376;2022-10-16T15:16:15;10.73;;;6.17;;
6029;SDS011;3043;42.682;23.376;2022-10-16T15:18:42;10.60;;;5.60;;
6029;SDS011;3043;42.682;23.376;2022-10-16T15:21:08;7.53;;;4.27;;
6029;SDS011;3043;42.682;23.376;2022-10-16T15:23:45;11.27;;;4.93;;
6029;SDS011;3043;42.682;23.376;2022-10-16T15:26:11;10.83;;;5.30;;
6029;SDS011;3043;42.682;23.376;2022-10-16T15:28:36;11.60;;;5.27;;
6029;SDS011;3043;42.682;23.376;2022-10-16T15:31:01;8.53;;;4.60;;
6029;SDS011;3043;42.682;23.376;2022-10-16T15:33:29;10.60;;;5.87;;
6029;SDS011;3043;42.682;23.376;2022-10-16T15:35:59;10.77;;;5.70;;
6029;SDS011;3043;42.682;23.376;2022-10-16T15:38:25;11.03;;;5.23;;
6029;SDS011;3043;42.682;23.376;2022-10-16T15:40:51;10.87;;;5.37;;
6029;SDS011;3043;42.682;23.376;2022-10-16T15:43:17;10.20;;;5.87;;
6029;SDS011;3043;42.682;23.376;2022-10-16T15:45:43;11.07;;;6.00;;
6029;SDS011;3043;42.682;23.376;2022-10-16T15:48:10;11.67;;;5.87;;
6029;SDS011;3043;42.682;23.376;2022-10-16T15:50:37;10.23;;;6.87;;
6029;SDS011;3043;42.682;23.376;2022-10-16T15:53:03;12.53;;;6.40;;
6029;SDS011;3043;42.682;23.376;2022-10-16T15:55:29;13.53;;;6.90;;
6029;SDS011;3043;42.682;23.376;2022-10-16T15:57:54;13.17;;;7.90;;
6029;SDS011;3043;42.682;23.376;2022-10-16T16:00:21;11.73;;;7.20;;
6029;SDS011;3043;42.682;23.376;2022-10-16T16:02:51;13.07;;;7.57;;
6029;SDS011;3043;42.682;23.376;2022-10-16T16:05:18;13.90;;;8.23;;
6029;SDS011;3043;42.682;23.376;2022-10-16T16:07:45;14.27;;;8.63;;
6029;SDS011;3043;42.682;23.376;2022-10-16T16:10:11;16.90;;;8.73;;
6029;SDS011;3043;42.682;23.376;2022-10-16T16:12:36;14.27;;;8.73;;
6029;SDS011;3043;42.682;23.376;2022-10-16T16:15:03;17.03;;;10.50;;
6029;SDS011;3043;42.682;23.376;2022-10-16T16:17:30;15.60;;;8.83;;
6029;SDS011;3043;42.682;23.376;2022-10-16T16:19:56;21.70;;;10.43;;
6029;SDS011;3043;42.682;23.376;2022-10-16T16:22:22;14.50;;;8.50;;
6029;SDS011;3043;42.682;23.376;2022-10-16T16:24:47;11.63;;;7.20;;
6029;SDS011;3043;42.682;23.376;2022-10-16T16:27:13;11.73;;;6.17;;
6029;SDS011;3043;42.682;23.376;2022-10-16T16:29:38;11.60;;;6.70;;
6029;SDS011;3043;42.682;23.376;2022-10-16T16:32:04;17.17;;;10.50;;
6029;SDS011;3043;42.682;23.376;2022-10-16T16:34:29;18.70;;;12.73;;
6029;SDS011;3043;42.682;23.376;2022-10-16T16:36:55;25.93;;;17.27;;
6029;SDS011;3043;42.682;23.376;2022-10-16T16:39:21;18.17;;;12.87;;
6029;SDS011;3043;42.682;23.376;2022-10-16T16:41:46;10.53;;;6.83;;
6029;SDS011;3043;42.682;23.376;2022-10-16T16:44:13;15.37;;;6.67;;
6029;SDS011;3043;42.682;23.376;2022-10-16T16:46:40;9.93;;;5.80;;